SILO ALERT LOG


Silo ID Alert Type Alert Message Silo Type Points Depth (mm) Strength Temperature (°C) Humidity (%) Height (mm) Volume (㎥) Weight (t) Flag Time
DJSAD08 Humidity 습도센서 측정값이 80% 초과 578 2302 4863 7.8 83.8 5277 750.993 474.778 12 2024-01-14 00:39:32.000
DJHNR11 Temperature 온도센서 측정값이 0도 미만 호퍼 122 1895 3326 -2.2 75.1 8484 129.067 81.596 11 2024-01-14 00:39:31.000
DJSAD18 Humidity 습도센서 측정값이 80% 초과 122 1352 5814 5.3 80.8 6227 620.155 392.062 11 2024-01-14 00:39:31.000
DJSSD09 Temperature 온도센서 측정값이 0도 미만 127 2864 3254 -45.4 0 4815 670.186 423.691 11 2024-01-14 00:39:31.000
DJDJD04 Humidity 습도센서 측정값이 80% 초과 281 4204 4531 3.7 81.8 3475 421.026 266.172 11 2024-01-14 00:39:31.000
DJSSD11 Temperature 온도센서 측정값이 0도 미만 호퍼 447 7384 154 -4 67.4 3845 29.018 15.815 0 2024-01-14 00:39:31.000
DJHNR13 Temperature 온도센서 측정값이 0도 미만 호퍼 13 2487 3042 -2.1 70.8 7892 116.28 73.512 0 2024-01-14 00:39:31.000
DJSAD17 Humidity 습도센서 측정값이 80% 초과 450 3134 4868 4.4 81.8 4445 442.683 279.864 0 2024-01-14 00:39:30.000
DJHNR14 Temperature 온도센서 측정값이 0도 미만 호퍼 45 2992 4476 -2.6 74.2 7387 105.395 66.63 11 2024-01-14 00:39:29.000
DJHNR03 Temperature 온도센서 상태 이상 호퍼 0 15500 0 -999 -999 -119 0 0 31 2024-01-14 00:39:25.000
DJSSD12 Temperature 온도센서 상태 이상 호퍼 0 11350 0 -999 -999 -120 0 0 31 2024-01-14 00:39:25.000
DJHNR12 Temperature 온도센서 측정값이 0도 미만 호퍼 0 10500 0 -1.2 77.2 -120 0 0 31 2024-01-14 00:39:23.000
DJDJD03 Humidity 습도센서 측정값이 80% 초과 61 4434 5093 2.9 82 3245 393.162 248.557 0 2024-01-13 23:39:40.000
DJSAD02 Humidity 습도센서 측정값이 80% 초과 384 1137 4271 2.1 85.8 7642 316.352 199.998 11 2024-01-13 23:39:39.000
DJSAD03 Humidity 습도센서 측정값이 80% 초과 442 1836 6226 3.3 84.5 6943 287.442 181.721 0 2024-01-13 23:39:39.000
DJSAD01 Humidity 습도센서 측정값이 80% 초과 464 1496 7383 1.6 84.9 7283 301.531 190.628 0 2024-01-13 23:39:39.000
DJSAD11 Humidity 습도센서 측정값이 80% 초과 333 1651 3311 2.1 80.1 5928 843.589 533.317 11 2024-01-13 23:39:34.000
DJHNR01 Humidity 습도센서 측정값이 80% 초과 호퍼 471 4315 4913 5.2 99.8 11064 472.248 298.555 13 2024-01-13 23:39:33.000
DJSSD04 Temperature 온도센서 상태 이상 0 8200 0 -999 -999 -120 -16.702 0 31 2024-01-13 23:39:33.000
DJSAD08 Humidity 습도센서 측정값이 80% 초과 573 2340 4919 8 83.8 5239 745.576 471.353 0 2024-01-13 23:39:32.000

[첫 페이지] [9959] [9960] [9961] [9962] 9963 [9964] [9965] [9966] [9967] [마지막 페이지]